Terminal Aerodrome Forecast
Issued by NWS

Current Version | Previous Version | Graphics & Text | Print | Product List | Glossary On
Versions: 1 2 3 4 5 6 7 8 9 10 11 12 13 14 15 16 17 18 19 20 21 22 23 24 25 26 27 28 29 30 31 32 33 34 35 36 37 38 39 40 41 42 43 44 45 46 47 48 49 50
000
FTUS41 KRNK 202322
TAFLWB
TAF
KLWB 202322Z 2100/2124 00000KT P6SM SCT025 BKN035
      TEMPO 2100/2103 BKN025
     FM210300 00000KT 4SM BR OVC025
     FM210800 13003KT 2SM BR OVC015
     FM211000 00000KT 1/2SM FG BKN004
     FM211400 VRB03KT 5SM BR SCT007 BKN015
     FM211600 14003KT P6SM BKN025
     FM212100 15003KT P6SM SCT025 BKN040=

USA.gov is the U.S. government's official web portal to all federal, state and local government web resources and services.